sensor_id;sensor_type;location;lat;lon;timestamp;P1;durP1;ratioP1;P2;durP2;ratioP2
19758;SDS011;10038;42.662;23.278;2023-04-02T00:02:25;1.37;;;1.10;;
19758;SDS011;10038;42.662;23.278;2023-04-02T00:08:19;1.10;;;1.00;;
19758;SDS011;10038;42.662;23.278;2023-04-02T00:10:50;2.60;;;1.00;;
19758;SDS011;10038;42.662;23.278;2023-04-02T00:13:22;1.33;;;1.00;;
19758;SDS011;10038;42.662;23.278;2023-04-02T00:16:02;1.00;;;0.87;;
19758;SDS011;10038;42.662;23.278;2023-04-02T00:18:31;1.20;;;0.77;;
19758;SDS011;10038;42.662;23.278;2023-04-02T00:21:02;1.73;;;0.80;;
19758;SDS011;10038;42.662;23.278;2023-04-02T00:23:36;1.97;;;0.90;;
19758;SDS011;10038;42.662;23.278;2023-04-02T00:26:05;4.77;;;2.03;;
19758;SDS011;10038;42.662;23.278;2023-04-02T00:28:48;1.50;;;1.30;;
19758;SDS011;10038;42.662;23.278;2023-04-02T00:31:16;2.83;;;2.00;;
19758;SDS011;10038;42.662;23.278;2023-04-02T00:33:45;3.60;;;2.20;;
19758;SDS011;10038;42.662;23.278;2023-04-02T00:36:13;2.00;;;1.80;;
19758;SDS011;10038;42.662;23.278;2023-04-02T00:38:40;2.10;;;1.40;;
19758;SDS011;10038;42.662;23.278;2023-04-02T00:41:12;12.90;;;5.43;;
19758;SDS011;10038;42.662;23.278;2023-04-02T00:43:43;1.30;;;1.07;;
19758;SDS011;10038;42.662;23.278;2023-04-02T00:46:16;1.90;;;1.33;;
19758;SDS011;10038;42.662;23.278;2023-04-02T00:48:49;3.70;;;2.00;;
19758;SDS011;10038;42.662;23.278;2023-04-02T00:51:21;7.70;;;4.43;;
19758;SDS011;10038;42.662;23.278;2023-04-02T00:53:51;1.30;;;1.20;;
19758;SDS011;10038;42.662;23.278;2023-04-02T00:56:22;4.90;;;2.50;;
19758;SDS011;10038;42.662;23.278;2023-04-02T00:58:54;2.23;;;1.60;;
19758;SDS011;10038;42.662;23.278;2023-04-02T01:01:24;1.00;;;0.80;;
19758;SDS011;10038;42.662;23.278;2023-04-02T01:03:53;1.10;;;0.80;;
19758;SDS011;10038;42.662;23.278;2023-04-02T01:06:23;1.00;;;0.77;;
19758;SDS011;10038;42.662;23.278;2023-04-02T01:11:59;1.20;;;0.90;;
19758;SDS011;10038;42.662;23.278;2023-04-02T01:14:38;1.83;;;1.40;;
19758;SDS011;10038;42.662;23.278;2023-04-02T01:17:16;2.93;;;2.20;;
19758;SDS011;10038;42.662;23.278;2023-04-02T01:20:14;6.33;;;3.30;;
19758;SDS011;10038;42.662;23.278;2023-04-02T01:22:56;2.37;;;1.13;;
19758;SDS011;10038;42.662;23.278;2023-04-02T01:25:32;14.10;;;6.10;;
19758;SDS011;10038;42.662;23.278;2023-04-02T01:28:08;10.17;;;5.03;;
19758;SDS011;10038;42.662;23.278;2023-04-02T01:30:45;8.30;;;3.03;;
19758;SDS011;10038;42.662;23.278;2023-04-02T01:33:18;0.93;;;0.67;;
19758;SDS011;10038;42.662;23.278;2023-04-02T01:35:48;6.10;;;3.20;;
19758;SDS011;10038;42.662;23.278;2023-04-02T01:38:31;4.67;;;2.20;;
19758;SDS011;10038;42.662;23.278;2023-04-02T01:41:04;6.33;;;1.60;;
19758;SDS011;10038;42.662;23.278;2023-04-02T01:43:39;3.80;;;1.23;;
19758;SDS011;10038;42.662;23.278;2023-04-02T01:48:59;9.73;;;4.67;;
19758;SDS011;10038;42.662;23.278;2023-04-02T01:51:29;2.90;;;2.30;;
19758;SDS011;10038;42.662;23.278;2023-04-02T01:54:00;3.03;;;2.57;;
19758;SDS011;10038;42.662;23.278;2023-04-02T01:56:29;3.87;;;2.27;;
19758;SDS011;10038;42.662;23.278;2023-04-02T01:58:56;2.20;;;1.80;;
19758;SDS011;10038;42.662;23.278;2023-04-02T02:01:26;4.77;;;2.17;;
19758;SDS011;10038;42.662;23.278;2023-04-02T02:03:58;4.80;;;2.10;;
19758;SDS011;10038;42.662;23.278;2023-04-02T02:06:26;2.63;;;1.60;;
19758;SDS011;10038;42.662;23.278;2023-04-02T02:08:54;2.53;;;1.37;;
19758;SDS011;10038;42.662;23.278;2023-04-02T02:11:25;2.10;;;1.30;;
19758;SDS011;10038;42.662;23.278;2023-04-02T02:13:55;2.90;;;2.00;;
19758;SDS011;10038;42.662;23.278;2023-04-02T02:16:23;1.93;;;1.37;;
19758;SDS011;10038;42.662;23.278;2023-04-02T02:18:52;6.20;;;2.87;;
19758;SDS011;10038;42.662;23.278;2023-04-02T02:21:27;3.10;;;1.50;;
19758;SDS011;10038;42.662;23.278;2023-04-02T02:24:03;5.50;;;3.30;;
19758;SDS011;10038;42.662;23.278;2023-04-02T02:26:34;3.00;;;1.93;;
19758;SDS011;10038;42.662;23.278;2023-04-02T02:29:02;3.77;;;1.97;;
19758;SDS011;10038;42.662;23.278;2023-04-02T02:31:33;6.10;;;3.03;;
19758;SDS011;10038;42.662;23.278;2023-04-02T02:34:03;5.03;;;2.43;;
19758;SDS011;10038;42.662;23.278;2023-04-02T02:36:42;16.83;;;7.70;;
19758;SDS011;10038;42.662;23.278;2023-04-02T02:39:15;10.63;;;5.13;;
19758;SDS011;10038;42.662;23.278;2023-04-02T02:41:48;4.73;;;2.00;;
19758;SDS011;10038;42.662;23.278;2023-04-02T02:44:19;12.93;;;5.03;;
19758;SDS011;10038;42.662;23.278;2023-04-02T02:46:50;1.20;;;0.77;;
19758;SDS011;10038;42.662;23.278;2023-04-02T02:49:20;2.43;;;1.20;;
19758;SDS011;10038;42.662;23.278;2023-04-02T02:51:56;3.00;;;1.40;;
19758;SDS011;10038;42.662;23.278;2023-04-02T02:54:25;3.20;;;1.80;;
19758;SDS011;10038;42.662;23.278;2023-04-02T02:56:55;1.40;;;1.30;;
19758;SDS011;10038;42.662;23.278;2023-04-02T02:59:25;2.03;;;1.60;;
19758;SDS011;10038;42.662;23.278;2023-04-02T03:01:54;2.83;;;1.17;;
19758;SDS011;10038;42.662;23.278;2023-04-02T03:04:23;2.50;;;1.47;;
19758;SDS011;10038;42.662;23.278;2023-04-02T03:06:51;2.50;;;1.57;;
19758;SDS011;10038;42.662;23.278;2023-04-02T03:09:23;2.60;;;1.63;;
19758;SDS011;10038;42.662;23.278;2023-04-02T03:12:01;1.17;;;0.83;;
19758;SDS011;10038;42.662;23.278;2023-04-02T03:14:33;1.50;;;1.13;;
19758;SDS011;10038;42.662;23.278;2023-04-02T03:17:06;1.10;;;0.87;;
19758;SDS011;10038;42.662;23.278;2023-04-02T03:19:38;4.40;;;1.63;;
19758;SDS011;10038;42.662;23.278;2023-04-02T03:22:10;1.20;;;1.03;;
19758;SDS011;10038;42.662;23.278;2023-04-02T03:24:44;1.87;;;1.20;;
19758;SDS011;10038;42.662;23.278;2023-04-02T03:27:18;2.63;;;1.87;;
19758;SDS011;10038;42.662;23.278;2023-04-02T03:29:52;2.17;;;1.53;;
19758;SDS011;10038;42.662;23.278;2023-04-02T03:32:30;1.53;;;0.93;;
19758;SDS011;10038;42.662;23.278;2023-04-02T03:35:00;1.20;;;0.83;;
19758;SDS011;10038;42.662;23.278;2023-04-02T03:37:32;1.37;;;0.90;;
19758;SDS011;10038;42.662;23.278;2023-04-02T03:40:07;1.20;;;0.80;;
19758;SDS011;10038;42.662;23.278;2023-04-02T03:42:41;1.20;;;0.80;;
19758;SDS011;10038;42.662;23.278;2023-04-02T03:45:13;1.73;;;0.90;;
19758;SDS011;10038;42.662;23.278;2023-04-02T03:47:46;2.27;;;1.60;;
19758;SDS011;10038;42.662;23.278;2023-04-02T03:50:20;2.20;;;1.10;;
19758;SDS011;10038;42.662;23.278;2023-04-02T03:52:51;2.40;;;1.10;;
19758;SDS011;10038;42.662;23.278;2023-04-02T03:55:20;0.97;;;0.70;;
19758;SDS011;10038;42.662;23.278;2023-04-02T03:57:51;2.23;;;1.73;;
19758;SDS011;10038;42.662;23.278;2023-04-02T04:00:25;1.90;;;0.93;;
19758;SDS011;10038;42.662;23.278;2023-04-02T04:03:01;1.00;;;0.60;;
19758;SDS011;10038;42.662;23.278;2023-04-02T04:05:33;1.10;;;0.80;;
19758;SDS011;10038;42.662;23.278;2023-04-02T04:08:04;1.20;;;0.90;;
19758;SDS011;10038;42.662;23.278;2023-04-02T04:10:34;1.30;;;0.73;;
19758;SDS011;10038;42.662;23.278;2023-04-02T04:13:03;2.03;;;1.20;;
19758;SDS011;10038;42.662;23.278;2023-04-02T04:15:35;1.17;;;0.90;;
19758;SDS011;10038;42.662;23.278;2023-04-02T04:18:05;1.10;;;0.90;;
19758;SDS011;10038;42.662;23.278;2023-04-02T04:20:45;2.20;;;1.80;;
19758;SDS011;10038;42.662;23.278;2023-04-02T04:23:21;2.60;;;1.63;;
19758;SDS011;10038;42.662;23.278;2023-04-02T04:25:59;1.60;;;1.10;;
19758;SDS011;10038;42.662;23.278;2023-04-02T04:28:35;2.60;;;1.40;;
19758;SDS011;10038;42.662;23.278;2023-04-02T04:31:12;1.10;;;0.90;;
19758;SDS011;10038;42.662;23.278;2023-04-02T04:33:46;1.40;;;0.80;;
19758;SDS011;10038;42.662;23.278;2023-04-02T04:36:20;2.03;;;1.23;;
19758;SDS011;10038;42.662;23.278;2023-04-02T04:38:52;2.40;;;1.63;;
19758;SDS011;10038;42.662;23.278;2023-04-02T04:41:26;2.40;;;1.53;;
19758;SDS011;10038;42.662;23.278;2023-04-02T04:43:58;1.47;;;1.37;;
19758;SDS011;10038;42.662;23.278;2023-04-02T04:46:31;2.03;;;1.10;;
19758;SDS011;10038;42.662;23.278;2023-04-02T04:49:06;1.83;;;1.00;;
19758;SDS011;10038;42.662;23.278;2023-04-02T04:51:38;3.07;;;2.07;;
19758;SDS011;10038;42.662;23.278;2023-04-02T04:54:11;2.53;;;2.30;;
19758;SDS011;10038;42.662;23.278;2023-04-02T04:56:40;3.03;;;2.33;;
19758;SDS011;10038;42.662;23.278;2023-04-02T04:59:13;6.80;;;2.93;;
19758;SDS011;10038;42.662;23.278;2023-04-02T05:01:45;2.70;;;2.40;;
19758;SDS011;10038;42.662;23.278;2023-04-02T05:04:18;5.00;;;2.83;;
19758;SDS011;10038;42.662;23.278;2023-04-02T05:06:50;6.80;;;3.30;;
19758;SDS011;10038;42.662;23.278;2023-04-02T05:09:21;3.50;;;2.37;;
19758;SDS011;10038;42.662;23.278;2023-04-02T05:11:58;4.57;;;3.60;;
19758;SDS011;10038;42.662;23.278;2023-04-02T05:14:32;5.93;;;3.70;;
19758;SDS011;10038;42.662;23.278;2023-04-02T05:17:03;7.13;;;3.50;;
19758;SDS011;10038;42.662;23.278;2023-04-02T05:19:35;4.13;;;2.60;;
19758;SDS011;10038;42.662;23.278;2023-04-02T05:22:11;10.33;;;3.83;;
19758;SDS011;10038;42.662;23.278;2023-04-02T05:24:54;5.00;;;3.30;;
19758;SDS011;10038;42.662;23.278;2023-04-02T05:27:30;6.90;;;3.00;;
19758;SDS011;10038;42.662;23.278;2023-04-02T05:30:06;6.50;;;3.50;;
19758;SDS011;10038;42.662;23.278;2023-04-02T05:32:40;5.57;;;2.90;;
19758;SDS011;10038;42.662;23.278;2023-04-02T05:35:13;6.80;;;3.73;;
19758;SDS011;10038;42.662;23.278;2023-04-02T05:37:43;6.13;;;3.50;;
19758;SDS011;10038;42.662;23.278;2023-04-02T05:40:12;7.57;;;3.20;;
19758;SDS011;10038;42.662;23.278;2023-04-02T05:42:46;6.30;;;3.73;;
19758;SDS011;10038;42.662;23.278;2023-04-02T05:45:22;9.47;;;7.60;;
19758;SDS011;10038;42.662;23.278;2023-04-02T05:47:56;12.77;;;9.17;;
19758;SDS011;10038;42.662;23.278;2023-04-02T05:50:27;6.20;;;4.30;;
19758;SDS011;10038;42.662;23.278;2023-04-02T05:52:57;9.40;;;2.90;;
19758;SDS011;10038;42.662;23.278;2023-04-02T05:55:42;4.97;;;2.70;;
19758;SDS011;10038;42.662;23.278;2023-04-02T05:58:19;9.00;;;4.87;;
19758;SDS011;10038;42.662;23.278;2023-04-02T06:03:58;6.63;;;3.33;;
19758;SDS011;10038;42.662;23.278;2023-04-02T06:06:41;5.20;;;3.37;;
19758;SDS011;10038;42.662;23.278;2023-04-02T06:09:14;12.47;;;11.20;;
19758;SDS011;10038;42.662;23.278;2023-04-02T06:11:46;7.87;;;6.70;;
19758;SDS011;10038;42.662;23.278;2023-04-02T06:14:18;6.93;;;4.50;;
19758;SDS011;10038;42.662;23.278;2023-04-02T06:16:45;4.83;;;3.63;;
19758;SDS011;10038;42.662;23.278;2023-04-02T06:19:14;5.27;;;4.40;;
19758;SDS011;10038;42.662;23.278;2023-04-02T06:21:44;4.43;;;3.30;;
19758;SDS011;10038;42.662;23.278;2023-04-02T06:24:14;6.20;;;3.17;;
19758;SDS011;10038;42.662;23.278;2023-04-02T06:26:45;4.93;;;2.80;;
19758;SDS011;10038;42.662;23.278;2023-04-02T06:29:19;6.93;;;2.87;;
19758;SDS011;10038;42.662;23.278;2023-04-02T06:31:54;2.30;;;2.07;;
19758;SDS011;10038;42.662;23.278;2023-04-02T06:34:23;5.40;;;2.07;;
19758;SDS011;10038;42.662;23.278;2023-04-02T06:36:53;4.77;;;2.47;;
19758;SDS011;10038;42.662;23.278;2023-04-02T06:39:23;4.40;;;2.40;;
19758;SDS011;10038;42.662;23.278;2023-04-02T06:41:53;4.80;;;2.60;;
19758;SDS011;10038;42.662;23.278;2023-04-02T06:44:27;3.83;;;2.27;;
19758;SDS011;10038;42.662;23.278;2023-04-02T06:46:58;3.00;;;2.30;;
19758;SDS011;10038;42.662;23.278;2023-04-02T06:49:29;3.23;;;2.80;;
19758;SDS011;10038;42.662;23.278;2023-04-02T06:52:02;3.80;;;3.00;;
19758;SDS011;10038;42.662;23.278;2023-04-02T06:54:31;4.23;;;2.97;;
19758;SDS011;10038;42.662;23.278;2023-04-02T06:56:58;4.17;;;3.27;;
19758;SDS011;10038;42.662;23.278;2023-04-02T06:59:27;4.77;;;3.43;;
19758;SDS011;10038;42.662;23.278;2023-04-02T07:01:55;4.10;;;2.60;;
19758;SDS011;10038;42.662;23.278;2023-04-02T07:04:27;4.03;;;3.07;;
19758;SDS011;10038;42.662;23.278;2023-04-02T07:06:55;1.60;;;1.10;;
19758;SDS011;10038;42.662;23.278;2023-04-02T07:09:22;1.63;;;1.37;;
19758;SDS011;10038;42.662;23.278;2023-04-02T07:11:50;1.13;;;0.80;;
19758;SDS011;10038;42.662;23.278;2023-04-02T07:14:16;1.30;;;1.10;;
19758;SDS011;10038;42.662;23.278;2023-04-02T07:16:45;1.10;;;1.00;;
19758;SDS011;10038;42.662;23.278;2023-04-02T07:19:15;1.33;;;1.07;;
19758;SDS011;10038;42.662;23.278;2023-04-02T07:21:44;1.10;;;0.77;;
19758;SDS011;10038;42.662;23.278;2023-04-02T07:24:12;2.50;;;1.00;;
19758;SDS011;10038;42.662;23.278;2023-04-02T07:26:40;1.10;;;0.70;;
19758;SDS011;10038;42.662;23.278;2023-04-02T07:29:08;1.37;;;0.80;;
19758;SDS011;10038;42.662;23.278;2023-04-02T07:31:40;1.00;;;0.73;;
19758;SDS011;10038;42.662;23.278;2023-04-02T07:34:08;1.40;;;1.10;;
19758;SDS011;10038;42.662;23.278;2023-04-02T07:36:35;2.10;;;0.70;;
19758;SDS011;10038;42.662;23.278;2023-04-02T07:39:03;1.27;;;1.10;;
19758;SDS011;10038;42.662;23.278;2023-04-02T07:41:30;1.50;;;1.10;;
19758;SDS011;10038;42.662;23.278;2023-04-02T07:43:57;1.40;;;1.30;;
19758;SDS011;10038;42.662;23.278;2023-04-02T07:46:24;1.13;;;0.83;;
19758;SDS011;10038;42.662;23.278;2023-04-02T07:48:51;1.67;;;0.90;;
19758;SDS011;10038;42.662;23.278;2023-04-02T07:51:20;1.00;;;0.80;;
19758;SDS011;10038;42.662;23.278;2023-04-02T07:53:48;1.37;;;1.10;;
19758;SDS011;10038;42.662;23.278;2023-04-02T07:56:20;2.80;;;1.50;;
19758;SDS011;10038;42.662;23.278;2023-04-02T07:58:49;2.33;;;1.30;;
19758;SDS011;10038;42.662;23.278;2023-04-02T08:01:17;1.10;;;1.00;;
19758;SDS011;10038;42.662;23.278;2023-04-02T08:03:48;2.37;;;1.00;;
19758;SDS011;10038;42.662;23.278;2023-04-02T08:06:15;2.03;;;1.10;;
19758;SDS011;10038;42.662;23.278;2023-04-02T08:08:44;1.23;;;0.90;;
19758;SDS011;10038;42.662;23.278;2023-04-02T08:11:11;1.47;;;1.00;;
19758;SDS011;10038;42.662;23.278;2023-04-02T08:13:38;2.23;;;0.90;;
19758;SDS011;10038;42.662;23.278;2023-04-02T08:16:05;1.20;;;0.80;;
19758;SDS011;10038;42.662;23.278;2023-04-02T08:18:33;2.43;;;1.10;;
19758;SDS011;10038;42.662;23.278;2023-04-02T08:21:01;1.73;;;0.83;;
19758;SDS011;10038;42.662;23.278;2023-04-02T08:23:28;1.93;;;0.87;;
19758;SDS011;10038;42.662;23.278;2023-04-02T08:25:56;2.33;;;1.20;;
19758;SDS011;10038;42.662;23.278;2023-04-02T08:28:23;1.10;;;0.83;;
19758;SDS011;10038;42.662;23.278;2023-04-02T08:30:53;1.50;;;0.93;;
19758;SDS011;10038;42.662;23.278;2023-04-02T08:33:20;1.20;;;1.00;;
19758;SDS011;10038;42.662;23.278;2023-04-02T08:35:47;1.20;;;0.93;;
19758;SDS011;10038;42.662;23.278;2023-04-02T08:38:15;2.10;;;1.03;;
19758;SDS011;10038;42.662;23.278;2023-04-02T08:40:44;1.70;;;1.20;;
19758;SDS011;10038;42.662;23.278;2023-04-02T08:46:17;2.67;;;1.50;;
19758;SDS011;10038;42.662;23.278;2023-04-02T08:48:51;2.07;;;1.40;;
19758;SDS011;10038;42.662;23.278;2023-04-02T08:51:22;1.67;;;1.10;;
19758;SDS011;10038;42.662;23.278;2023-04-02T08:53:51;1.70;;;1.10;;
19758;SDS011;10038;42.662;23.278;2023-04-02T08:56:22;1.63;;;1.10;;
19758;SDS011;10038;42.662;23.278;2023-04-02T08:58:56;1.20;;;1.00;;
19758;SDS011;10038;42.662;23.278;2023-04-02T09:01:30;3.53;;;1.10;;
19758;SDS011;10038;42.662;23.278;2023-04-02T09:04:06;1.00;;;0.80;;
19758;SDS011;10038;42.662;23.278;2023-04-02T09:06:40;1.10;;;0.90;;
19758;SDS011;10038;42.662;23.278;2023-04-02T09:09:09;1.97;;;0.90;;
19758;SDS011;10038;42.662;23.278;2023-04-02T09:11:39;1.03;;;0.83;;
19758;SDS011;10038;42.662;23.278;2023-04-02T09:14:14;1.07;;;0.80;;
19758;SDS011;10038;42.662;23.278;2023-04-02T09:16:45;1.30;;;0.80;;
19758;SDS011;10038;42.662;23.278;2023-04-02T09:19:16;1.90;;;0.90;;
19758;SDS011;10038;42.662;23.278;2023-04-02T09:21:47;2.20;;;1.10;;
19758;SDS011;10038;42.662;23.278;2023-04-02T09:24:22;1.00;;;0.80;;
19758;SDS011;10038;42.662;23.278;2023-04-02T09:26:49;1.83;;;0.70;;
19758;SDS011;10038;42.662;23.278;2023-04-02T09:29:27;1.00;;;0.70;;
19758;SDS011;10038;42.662;23.278;2023-04-02T09:32:06;3.50;;;1.00;;
19758;SDS011;10038;42.662;23.278;2023-04-02T09:34:44;1.53;;;0.93;;
19758;SDS011;10038;42.662;23.278;2023-04-02T09:37:13;1.30;;;0.90;;
19758;SDS011;10038;42.662;23.278;2023-04-02T09:39:42;1.20;;;0.90;;
19758;SDS011;10038;42.662;23.278;2023-04-02T09:42:29;1.20;;;0.90;;
19758;SDS011;10038;42.662;23.278;2023-04-02T09:45:18;1.10;;;0.77;;
19758;SDS011;10038;42.662;23.278;2023-04-02T09:47:46;1.63;;;1.00;;
19758;SDS011;10038;42.662;23.278;2023-04-02T09:50:21;1.47;;;0.80;;
19758;SDS011;10038;42.662;23.278;2023-04-02T09:52:51;1.20;;;0.97;;
19758;SDS011;10038;42.662;23.278;2023-04-02T09:55:20;2.80;;;1.00;;
19758;SDS011;10038;42.662;23.278;2023-04-02T09:57:50;1.43;;;0.90;;
19758;SDS011;10038;42.662;23.278;2023-04-02T10:00:34;1.20;;;1.07;;
19758;SDS011;10038;42.662;23.278;2023-04-02T10:03:03;2.33;;;1.30;;
19758;SDS011;10038;42.662;23.278;2023-04-02T10:05:32;1.47;;;1.00;;
19758;SDS011;10038;42.662;23.278;2023-04-02T10:08:07;1.30;;;1.00;;
19758;SDS011;10038;42.662;23.278;2023-04-02T10:10:41;0.90;;;0.80;;
19758;SDS011;10038;42.662;23.278;2023-04-02T10:13:15;2.40;;;1.10;;
19758;SDS011;10038;42.662;23.278;2023-04-02T10:15:49;1.70;;;1.40;;
19758;SDS011;10038;42.662;23.278;2023-04-02T10:18:22;1.67;;;1.10;;
19758;SDS011;10038;42.662;23.278;2023-04-02T10:21:02;2.17;;;0.90;;
19758;SDS011;10038;42.662;23.278;2023-04-02T10:23:31;1.10;;;0.80;;
19758;SDS011;10038;42.662;23.278;2023-04-02T10:26:02;1.20;;;0.97;;
19758;SDS011;10038;42.662;23.278;2023-04-02T10:28:49;1.50;;;1.30;;
19758;SDS011;10038;42.662;23.278;2023-04-02T10:31:39;2.30;;;1.17;;
19758;SDS011;10038;42.662;23.278;2023-04-02T10:34:19;1.73;;;0.90;;
19758;SDS011;10038;42.662;23.278;2023-04-02T10:36:52;2.00;;;1.60;;
19758;SDS011;10038;42.662;23.278;2023-04-02T10:39:22;1.20;;;0.93;;
19758;SDS011;10038;42.662;23.278;2023-04-02T10:41:57;1.93;;;1.00;;
19758;SDS011;10038;42.662;23.278;2023-04-02T10:44:33;1.00;;;0.80;;
19758;SDS011;10038;42.662;23.278;2023-04-02T10:47:15;1.10;;;0.70;;
19758;SDS011;10038;42.662;23.278;2023-04-02T10:49:58;1.00;;;0.80;;
19758;SDS011;10038;42.662;23.278;2023-04-02T10:52:41;1.60;;;1.00;;
19758;SDS011;10038;42.662;23.278;2023-04-02T10:55:16;1.10;;;0.80;;
19758;SDS011;10038;42.662;23.278;2023-04-02T10:57:47;1.10;;;0.80;;
19758;SDS011;10038;42.662;23.278;2023-04-02T11:00:17;1.50;;;0.80;;
19758;SDS011;10038;42.662;23.278;2023-04-02T11:02:51;1.93;;;0.90;;
19758;SDS011;10038;42.662;23.278;2023-04-02T11:05:25;1.03;;;0.80;;
19758;SDS011;10038;42.662;23.278;2023-04-02T11:07:58;1.03;;;0.73;;
19758;SDS011;10038;42.662;23.278;2023-04-02T11:10:29;3.17;;;1.00;;
19758;SDS011;10038;42.662;23.278;2023-04-02T11:13:00;2.03;;;0.80;;
19758;SDS011;10038;42.662;23.278;2023-04-02T11:15:34;1.17;;;0.87;;
19758;SDS011;10038;42.662;23.278;2023-04-02T11:18:04;2.07;;;0.87;;
19758;SDS011;10038;42.662;23.278;2023-04-02T11:23:30;1.23;;;0.90;;
19758;SDS011;10038;42.662;23.278;2023-04-02T11:26:26;1.20;;;1.00;;
19758;SDS011;10038;42.662;23.278;2023-04-02T11:29:00;1.10;;;0.80;;
19758;SDS011;10038;42.662;23.278;2023-04-02T11:31:32;3.00;;;0.90;;
19758;SDS011;10038;42.662;23.278;2023-04-02T11:34:01;1.40;;;1.00;;
19758;SDS011;10038;42.662;23.278;2023-04-02T11:39:46;1.53;;;1.03;;
19758;SDS011;10038;42.662;23.278;2023-04-02T11:42:27;2.80;;;1.27;;
19758;SDS011;10038;42.662;23.278;2023-04-02T11:45:00;1.00;;;0.77;;
19758;SDS011;10038;42.662;23.278;2023-04-02T11:50:56;1.97;;;0.90;;
19758;SDS011;10038;42.662;23.278;2023-04-02T11:53:25;1.70;;;0.90;;
19758;SDS011;10038;42.662;23.278;2023-04-02T11:56:05;1.30;;;0.93;;
19758;SDS011;10038;42.662;23.278;2023-04-02T11:58:46;1.87;;;1.00;;
19758;SDS011;10038;42.662;23.278;2023-04-02T12:01:34;0.90;;;0.70;;
19758;SDS011;10038;42.662;23.278;2023-04-02T12:04:34;0.93;;;0.70;;
19758;SDS011;10038;42.662;23.278;2023-04-02T12:07:31;1.40;;;1.00;;
19758;SDS011;10038;42.662;23.278;2023-04-02T12:10:14;1.33;;;0.87;;
19758;SDS011;10038;42.662;23.278;2023-04-02T12:12:43;0.90;;;0.80;;
19758;SDS011;10038;42.662;23.278;2023-04-02T12:15:27;2.40;;;0.80;;
19758;SDS011;10038;42.662;23.278;2023-04-02T12:18:03;1.00;;;0.90;;
19758;SDS011;10038;42.662;23.278;2023-04-02T12:20:31;1.20;;;0.80;;
19758;SDS011;10038;42.662;23.278;2023-04-02T12:23:01;1.20;;;0.87;;
19758;SDS011;10038;42.662;23.278;2023-04-02T12:25:29;1.60;;;0.90;;
19758;SDS011;10038;42.662;23.278;2023-04-02T12:28:02;1.63;;;0.90;;
19758;SDS011;10038;42.662;23.278;2023-04-02T12:30:42;1.00;;;0.80;;
19758;SDS011;10038;42.662;23.278;2023-04-02T12:33:13;1.20;;;0.90;;
19758;SDS011;10038;42.662;23.278;2023-04-02T12:35:54;1.07;;;0.70;;
19758;SDS011;10038;42.662;23.278;2023-04-02T12:38:25;1.10;;;0.80;;
19758;SDS011;10038;42.662;23.278;2023-04-02T12:40:54;1.60;;;0.90;;
19758;SDS011;10038;42.662;23.278;2023-04-02T12:43:25;0.90;;;0.70;;
19758;SDS011;10038;42.662;23.278;2023-04-02T12:45:53;1.07;;;0.90;;
19758;SDS011;10038;42.662;23.278;2023-04-02T12:48:22;1.00;;;0.70;;
19758;SDS011;10038;42.662;23.278;2023-04-02T12:50:50;1.07;;;0.80;;
19758;SDS011;10038;42.662;23.278;2023-04-02T12:53:18;1.20;;;0.77;;
19758;SDS011;10038;42.662;23.278;2023-04-02T12:55:48;1.00;;;0.77;;
19758;SDS011;10038;42.662;23.278;2023-04-02T12:58:18;1.00;;;0.80;;
19758;SDS011;10038;42.662;23.278;2023-04-02T13:00:51;0.90;;;0.70;;
19758;SDS011;10038;42.662;23.278;2023-04-02T13:03:18;0.90;;;0.60;;
19758;SDS011;10038;42.662;23.278;2023-04-02T13:05:51;1.07;;;0.70;;
19758;SDS011;10038;42.662;23.278;2023-04-02T13:08:21;1.00;;;0.73;;
19758;SDS011;10038;42.662;23.278;2023-04-02T13:10:52;1.40;;;0.90;;
19758;SDS011;10038;42.662;23.278;2023-04-02T13:13:23;1.40;;;0.90;;
19758;SDS011;10038;42.662;23.278;2023-04-02T13:16:06;1.10;;;0.80;;
19758;SDS011;10038;42.662;23.278;2023-04-02T13:18:49;1.60;;;0.90;;
19758;SDS011;10038;42.662;23.278;2023-04-02T13:21:23;1.10;;;0.70;;
19758;SDS011;10038;42.662;23.278;2023-04-02T13:23:52;1.57;;;0.90;;
19758;SDS011;10038;42.662;23.278;2023-04-02T13:26:20;1.30;;;1.00;;
19758;SDS011;10038;42.662;23.278;2023-04-02T13:28:56;1.10;;;0.90;;
19758;SDS011;10038;42.662;23.278;2023-04-02T13:31:24;1.10;;;0.73;;
19758;SDS011;10038;42.662;23.278;2023-04-02T13:33:52;1.30;;;0.90;;
19758;SDS011;10038;42.662;23.278;2023-04-02T13:36:19;1.87;;;1.23;;
19758;SDS011;10038;42.662;23.278;2023-04-02T13:38:46;2.00;;;1.30;;
19758;SDS011;10038;42.662;23.278;2023-04-02T13:41:16;1.40;;;1.00;;
19758;SDS011;10038;42.662;23.278;2023-04-02T13:43:47;1.27;;;0.90;;
19758;SDS011;10038;42.662;23.278;2023-04-02T13:46:16;1.20;;;0.80;;
19758;SDS011;10038;42.662;23.278;2023-04-02T13:48:46;1.30;;;0.97;;
19758;SDS011;10038;42.662;23.278;2023-04-02T13:51:13;1.10;;;0.90;;
19758;SDS011;10038;42.662;23.278;2023-04-02T13:53:43;1.23;;;0.80;;
19758;SDS011;10038;42.662;23.278;2023-04-02T13:56:12;1.10;;;0.80;;
19758;SDS011;10038;42.662;23.278;2023-04-02T13:58:39;1.20;;;0.70;;
19758;SDS011;10038;42.662;23.278;2023-04-02T14:01:07;1.07;;;0.80;;
19758;SDS011;10038;42.662;23.278;2023-04-02T14:03:34;1.17;;;0.90;;
19758;SDS011;10038;42.662;23.278;2023-04-02T14:06:03;1.37;;;1.00;;
19758;SDS011;10038;42.662;23.278;2023-04-02T14:08:39;2.23;;;1.93;;
19758;SDS011;10038;42.662;23.278;2023-04-02T14:11:21;1.20;;;0.93;;
19758;SDS011;10038;42.662;23.278;2023-04-02T14:14:05;2.20;;;0.90;;
19758;SDS011;10038;42.662;23.278;2023-04-02T14:16:53;5.43;;;1.10;;
19758;SDS011;10038;42.662;23.278;2023-04-02T14:19:31;2.13;;;0.93;;
19758;SDS011;10038;42.662;23.278;2023-04-02T14:22:12;1.17;;;0.97;;
19758;SDS011;10038;42.662;23.278;2023-04-02T14:24:51;1.40;;;1.03;;
19758;SDS011;10038;42.662;23.278;2023-04-02T14:27:28;1.30;;;0.90;;
19758;SDS011;10038;42.662;23.278;2023-04-02T14:30:06;1.50;;;1.03;;
19758;SDS011;10038;42.662;23.278;2023-04-02T14:32:40;1.27;;;0.90;;
19758;SDS011;10038;42.662;23.278;2023-04-02T14:35:14;1.20;;;0.90;;
19758;SDS011;10038;42.662;23.278;2023-04-02T14:37:49;1.80;;;1.17;;
19758;SDS011;10038;42.662;23.278;2023-04-02T14:40:24;1.03;;;0.80;;
19758;SDS011;10038;42.662;23.278;2023-04-02T14:42:56;2.27;;;1.00;;
19758;SDS011;10038;42.662;23.278;2023-04-02T14:45:31;1.20;;;0.90;;
19758;SDS011;10038;42.662;23.278;2023-04-02T14:48:13;1.10;;;0.90;;
19758;SDS011;10038;42.662;23.278;2023-04-02T14:50:52;1.10;;;0.90;;
19758;SDS011;10038;42.662;23.278;2023-04-02T14:53:25;1.23;;;1.00;;
19758;SDS011;10038;42.662;23.278;2023-04-02T14:55:56;1.47;;;1.10;;
19758;SDS011;10038;42.662;23.278;2023-04-02T14:58:29;1.33;;;1.00;;
19758;SDS011;10038;42.662;23.278;2023-04-02T15:01:00;1.30;;;1.00;;
19758;SDS011;10038;42.662;23.278;2023-04-02T15:03:34;1.73;;;1.00;;
19758;SDS011;10038;42.662;23.278;2023-04-02T15:06:08;4.23;;;1.10;;
19758;SDS011;10038;42.662;23.278;2023-04-02T15:08:37;1.60;;;0.90;;
19758;SDS011;10038;42.662;23.278;2023-04-02T15:11:09;3.90;;;1.13;;
19758;SDS011;10038;42.662;23.278;2023-04-02T15:13:42;3.13;;;1.30;;
19758;SDS011;10038;42.662;23.278;2023-04-02T15:16:13;1.07;;;0.80;;
19758;SDS011;10038;42.662;23.278;2023-04-02T15:18:45;1.10;;;0.90;;
19758;SDS011;10038;42.662;23.278;2023-04-02T15:21:24;1.33;;;0.97;;
19758;SDS011;10038;42.662;23.278;2023-04-02T15:24:03;1.43;;;1.10;;
19758;SDS011;10038;42.662;23.278;2023-04-02T15:26:37;1.30;;;1.00;;
19758;SDS011;10038;42.662;23.278;2023-04-02T15:29:18;1.70;;;1.00;;
19758;SDS011;10038;42.662;23.278;2023-04-02T15:31:50;1.30;;;1.10;;